This is the latest recevied weather packets stored in our database for station/object KA8OAD-10. If no packets are shown the sender has not sent any weather packets the latest 1 day(s).
| Time | Temp. | Humidity | Pressure | Rain* | Wind** | Luminosity | Snow |
|---|---|---|---|---|---|---|---|
| 1836274697 | 18.33° C | 75% | 1019.4 hPa | 0 mm | 0 m/s | 0 W/m² | - |
| 1836274538 | 18.33° C | 74% | 1019.4 hPa | 0 mm | 0 m/s | 0 W/m² | - |
| 1836274397 | 18.33° C | 74% | 1019.4 hPa | 0 mm | 0 m/s | 0 W/m² | - |
| 1836274248 | 18.33° C | 75% | 1019.4 hPa | 0 mm | 0 m/s | 0 W/m² | - |
| 1836274213 | 18.89° C | 75% | 1019.4 hPa | 0 mm | 0 m/s | 0 W/m² | - |
| 1836274096 | 18.89° C | 75% | 1019.4 hPa | 0 mm | 0 m/s | 0 W/m² | - |
| 1778032650 | 10° C | 90% | 1007 hPa | 5.08 mm | 0 m/s | 0 W/m² | - |
| 1778032349 | 10° C | 90% | 1006.8 hPa | 4.57 mm | 0 m/s | 0 W/m² | - |
| 1778031452 | 10° C | 90% | 1006.8 hPa | 3.81 mm | 0 m/s | 0 W/m² | - |
| 1778030851 | 10° C | 89% | 1006.7 hPa | 2.79 mm | 0.45 m/s, 308° | 0 W/m² | - |
| 1778029351 | 10.56° C | 89% | 1006.4 hPa | 0.76 mm | 0 m/s | 0 W/m² | - |
| 1778029051 | 10.56° C | 89% | 1006.4 hPa | 0.25 mm | 0.45 m/s, 97° | 0 W/m² | - |
| 1778026951 | 11.11° C | 87% | 1006.4 hPa | 1.78 mm | 0.45 m/s, 351° | 0 W/m² | - |
| 1778026050 | 11.67° C | 87% | 1006.2 hPa | 4.32 mm | 0.45 m/s, 85° | 0 W/m² | - |
| 1778025753 | 12.22° C | 87% | 1006.3 hPa | 5.84 mm | 0.89 m/s, 67° | 0 W/m² | - |
| 1778025152 | 12.22° C | 86% | 1006.4 hPa | 7.87 mm | 0.45 m/s, 89° | 0 W/m² | - |
| 1778024551 | 12.78° C | 86% | 1006.4 hPa | 7.62 mm | 0.45 m/s, 72° | 0 W/m² | - |
| 1778022752 | 14.44° C | 85% | 1006.4 hPa | 5.08 mm | 0.89 m/s, 335° | 0 W/m² | - |
| 1778022453 | 14.44° C | 86% | 1006.3 hPa | 3.81 mm | 0.89 m/s, 321° | 0 W/m² | - |
| 1778022151 | 15° C | 86% | 1006.4 hPa | 1.78 mm | 0.89 m/s, 318° | 0 W/m² | - |
| 1778020951 | 15.56° C | 87% | 1005.8 hPa | 0 mm | 0 m/s | 12 W/m² | - |
| 1778020651 | 15.56° C | 87% | 1005.8 hPa | 0 mm | 0 m/s | 19 W/m² | - |
| 1778020351 | 15.56° C | 86% | 1005.9 hPa | 0 mm | 0 m/s | 19 W/m² | - |
| 1778020051 | 15.56° C | 86% | 1005.7 hPa | 0 mm | 0 m/s | 23 W/m² | - |
| 1778019449 | 15.56° C | 86% | 1005.9 hPa | 0 mm | 0 m/s | 28 W/m² | - |
* Rain latest hour (hover to see other rain measurements)
** Current wind speed in m/s (hover to see current wind gust speed)